sensor_id;sensor_type;location;lat;lon;timestamp;pressure;altitude;pressure_sealevel;temperature;humidity
69574;BME280;62840;52.366;5.980;2023-03-18T00:02:13;100651.94;;;11.73;64.67
69574;BME280;62840;52.366;5.980;2023-03-18T00:05:08;100646.03;;;11.69;64.67
69574;BME280;62840;52.366;5.980;2023-03-18T00:08:09;100644.47;;;11.67;64.67
69574;BME280;62840;52.366;5.980;2023-03-18T00:10:50;100647.69;;;11.61;64.99
69574;BME280;62840;52.366;5.980;2023-03-18T00:13:40;100646.00;;;11.60;64.91
69574;BME280;62840;52.366;5.980;2023-03-18T00:16:20;100642.63;;;11.58;64.96
69574;BME280;62840;52.366;5.980;2023-03-18T00:18:55;100646.31;;;11.57;64.90
69574;BME280;62840;52.366;5.980;2023-03-18T00:21:39;100653.59;;;11.55;64.81
69574;BME280;62840;52.366;5.980;2023-03-18T00:24:28;100657.53;;;11.50;64.85
69574;BME280;62840;52.366;5.980;2023-03-18T00:29:53;100656.66;;;11.40;65.10
69574;BME280;62840;52.366;5.980;2023-03-18T00:32:34;100663.94;;;11.38;65.06
69574;BME280;62840;52.366;5.980;2023-03-18T00:35:06;100667.03;;;11.34;64.90
69574;BME280;62840;52.366;5.980;2023-03-18T00:37:45;100675.19;;;11.32;65.26
69574;BME280;62840;52.366;5.980;2023-03-18T00:40:48;100672.06;;;11.27;65.48
69574;BME280;62840;52.366;5.980;2023-03-18T00:43:32;100682.31;;;11.22;65.38
69574;BME280;62840;52.366;5.980;2023-03-18T00:46:28;100680.06;;;11.17;65.47
69574;BME280;62840;52.366;5.980;2023-03-18T00:51:50;100691.13;;;11.13;65.48
69574;BME280;62840;52.366;5.980;2023-03-18T00:54:38;100683.25;;;11.11;65.41
69574;BME280;62840;52.366;5.980;2023-03-18T01:00:14;100682.94;;;11.04;65.38
69574;BME280;62840;52.366;5.980;2023-03-18T01:02:49;100686.88;;;11.00;65.53
69574;BME280;62840;52.366;5.980;2023-03-18T01:05:28;100692.47;;;10.97;65.78
69574;BME280;62840;52.366;5.980;2023-03-18T01:08:15;100692.75;;;10.94;65.60
69574;BME280;62840;52.366;5.980;2023-03-18T01:10:55;100713.38;;;10.92;65.64
69574;BME280;62840;52.366;5.980;2023-03-18T01:13:32;100705.66;;;10.89;65.57
69574;BME280;62840;52.366;5.980;2023-03-18T01:16:12;100707.56;;;10.87;65.71
69574;BME280;62840;52.366;5.980;2023-03-18T01:19:15;100702.75;;;10.81;65.96
69574;BME280;62840;52.366;5.980;2023-03-18T01:22:03;100703.25;;;10.75;65.94
69574;BME280;62840;52.366;5.980;2023-03-18T01:25:17;100692.03;;;10.71;65.93
69574;BME280;62840;52.366;5.980;2023-03-18T01:27:56;100700.16;;;10.70;66.07
69574;BME280;62840;52.366;5.980;2023-03-18T01:30:43;100702.09;;;10.67;66.07
69574;BME280;62840;52.366;5.980;2023-03-18T01:33:40;100697.03;;;10.64;66.63
69574;BME280;62840;52.366;5.980;2023-03-18T01:36:30;100690.28;;;10.60;66.06
69574;BME280;62840;52.366;5.980;2023-03-18T01:41:47;100693.22;;;10.57;66.41
69574;BME280;62840;52.366;5.980;2023-03-18T01:44:28;100694.19;;;10.56;66.54
69574;BME280;62840;52.366;5.980;2023-03-18T01:47:07;100695.00;;;10.57;66.69
69574;BME280;62840;52.366;5.980;2023-03-18T01:49:49;100699.50;;;10.56;66.72
69574;BME280;62840;52.366;5.980;2023-03-18T01:52:21;100693.34;;;10.56;66.56
69574;BME280;62840;52.366;5.980;2023-03-18T01:55:13;100695.88;;;10.57;66.71
69574;BME280;62840;52.366;5.980;2023-03-18T01:57:51;100695.88;;;10.57;66.68
69574;BME280;62840;52.366;5.980;2023-03-18T02:00:37;100698.41;;;10.59;66.64
69574;BME280;62840;52.366;5.980;2023-03-18T02:03:24;100693.91;;;10.59;66.61
69574;BME280;62840;52.366;5.980;2023-03-18T02:06:00;100696.72;;;10.58;66.55
69574;BME280;62840;52.366;5.980;2023-03-18T02:08:38;100699.25;;;10.59;66.58
69574;BME280;62840;52.366;5.980;2023-03-18T02:11:32;100699.50;;;10.56;66.95
69574;BME280;62840;52.366;5.980;2023-03-18T02:14:09;100700.63;;;10.54;66.70
69574;BME280;62840;52.366;5.980;2023-03-18T02:17:01;100702.28;;;10.55;66.85
69574;BME280;62840;52.366;5.980;2023-03-18T02:20:04;100701.47;;;10.54;66.70
69574;BME280;62840;52.366;5.980;2023-03-18T02:22:58;100697.13;;;10.53;67.04
69574;BME280;62840;52.366;5.980;2023-03-18T02:26:06;100703.41;;;10.52;67.00
69574;BME280;62840;52.366;5.980;2023-03-18T02:29:05;100709.72;;;10.51;66.98
69574;BME280;62840;52.366;5.980;2023-03-18T02:32:02;100700.03;;;10.50;67.03
69574;BME280;62840;52.366;5.980;2023-03-18T02:34:47;100709.00;;;10.49;67.08
69574;BME280;62840;52.366;5.980;2023-03-18T02:37:26;100705.34;;;10.50;67.03
69574;BME280;62840;52.366;5.980;2023-03-18T02:40:17;100707.06;;;10.51;67.05
69574;BME280;62840;52.366;5.980;2023-03-18T02:43:05;100707.06;;;10.51;67.24
69574;BME280;62840;52.366;5.980;2023-03-18T02:49:17;100716.28;;;10.47;67.10
69574;BME280;62840;52.366;5.980;2023-03-18T02:51:54;100725.28;;;10.46;67.10
69574;BME280;62840;52.366;5.980;2023-03-18T02:54:30;100718.25;;;10.45;67.12
69574;BME280;62840;52.366;5.980;2023-03-18T02:57:22;100728.91;;;10.45;67.29
69574;BME280;62840;52.366;5.980;2023-03-18T03:00:10;100727.22;;;10.44;67.06
69574;BME280;62840;52.366;5.980;2023-03-18T03:03:09;100728.91;;;10.45;67.33
69574;BME280;62840;52.366;5.980;2023-03-18T03:05:57;100727.22;;;10.44;67.34
69574;BME280;62840;52.366;5.980;2023-03-18T03:14:27;100731.94;;;10.40;67.31
69574;BME280;62840;52.366;5.980;2023-03-18T03:17:09;100729.16;;;10.42;67.24
69574;BME280;62840;52.366;5.980;2023-03-18T03:20:06;100722.13;;;10.41;67.32
69574;BME280;62840;52.366;5.980;2023-03-18T03:23:03;100727.47;;;10.41;67.59
69574;BME280;62840;52.366;5.980;2023-03-18T03:25:48;100731.25;;;10.38;67.54
69574;BME280;62840;52.366;5.980;2023-03-18T03:28:31;100725.19;;;10.36;67.80
69574;BME280;62840;52.366;5.980;2023-03-18T03:31:09;100732.34;;;10.36;67.52
69574;BME280;62840;52.366;5.980;2023-03-18T03:33:53;100735.97;;;10.35;67.75
69574;BME280;62840;52.366;5.980;2023-03-18T03:36:30;100733.56;;;10.32;67.77
69574;BME280;62840;52.366;5.980;2023-03-18T03:39:11;100738.06;;;10.31;67.52
69574;BME280;62840;52.366;5.980;2023-03-18T03:41:59;100743.38;;;10.31;67.58
69574;BME280;62840;52.366;5.980;2023-03-18T03:44:50;100734.56;;;10.31;67.62
69574;BME280;62840;52.366;5.980;2023-03-18T03:47:29;100742.56;;;10.31;67.53
69574;BME280;62840;52.366;5.980;2023-03-18T03:53:31;100743.50;;;10.30;67.77
69574;BME280;62840;52.366;5.980;2023-03-18T03:56:20;100754.06;;;10.31;67.99
69574;BME280;62840;52.366;5.980;2023-03-18T03:59:02;100749.56;;;10.32;67.79
69574;BME280;62840;52.366;5.980;2023-03-18T04:01:49;100749.56;;;10.32;67.91
69574;BME280;62840;52.366;5.980;2023-03-18T04:04:37;100750.41;;;10.32;67.88
69574;BME280;62840;52.366;5.980;2023-03-18T04:07:13;100749.56;;;10.32;67.68
69574;BME280;62840;52.366;5.980;2023-03-18T04:09:55;100751.28;;;10.33;67.68
69574;BME280;62840;52.366;5.980;2023-03-18T04:12:29;100750.41;;;10.32;67.88
69574;BME280;62840;52.366;5.980;2023-03-18T04:15:14;100756.59;;;10.33;67.72
69574;BME280;62840;52.366;5.980;2023-03-18T04:17:59;100767.00;;;10.36;67.74
69574;BME280;62840;52.366;5.980;2023-03-18T04:20:48;100766.16;;;10.35;67.74
69574;BME280;62840;52.366;5.980;2023-03-18T04:23:55;100769.66;;;10.36;67.77
69574;BME280;62840;52.366;5.980;2023-03-18T04:26:43;100771.34;;;10.37;67.75
69574;BME280;62840;52.366;5.980;2023-03-18T04:29:34;100774.00;;;10.37;67.90
69574;BME280;62840;52.366;5.980;2023-03-18T04:32:14;100768.69;;;10.37;67.79
69574;BME280;62840;52.366;5.980;2023-03-18T04:34:50;100774.00;;;10.37;67.65
69574;BME280;62840;52.366;5.980;2023-03-18T04:37:23;100771.34;;;10.37;67.85
69574;BME280;62840;52.366;5.980;2023-03-18T04:43:00;100780.22;;;10.37;67.82
69574;BME280;62840;52.366;5.980;2023-03-18T04:45:44;100774.88;;;10.37;67.95
69574;BME280;62840;52.366;5.980;2023-03-18T04:48:28;100772.31;;;10.36;67.92
69574;BME280;62840;52.366;5.980;2023-03-18T04:51:06;100772.31;;;10.36;67.98
69574;BME280;62840;52.366;5.980;2023-03-18T04:53:48;100770.63;;;10.35;68.02
69574;BME280;62840;52.366;5.980;2023-03-18T04:56:22;100769.66;;;10.36;68.11
69574;BME280;62840;52.366;5.980;2023-03-18T04:59:03;100767.00;;;10.36;68.13
69574;BME280;62840;52.366;5.980;2023-03-18T05:01:40;100770.63;;;10.35;68.06
69574;BME280;62840;52.366;5.980;2023-03-18T05:04:26;100777.66;;;10.36;68.09
69574;BME280;62840;52.366;5.980;2023-03-18T05:07:06;100775.94;;;10.35;68.33
69574;BME280;62840;52.366;5.980;2023-03-18T05:09:54;100772.59;;;10.33;68.12
69574;BME280;62840;52.366;5.980;2023-03-18T05:12:30;100777.94;;;10.33;68.38
69574;BME280;62840;52.366;5.980;2023-03-18T05:15:15;100772.59;;;10.33;68.52
69574;BME280;62840;52.366;5.980;2023-03-18T05:18:16;100778.03;;;10.31;68.38
69574;BME280;62840;52.366;5.980;2023-03-18T05:21:07;100779.88;;;10.31;68.53
69574;BME280;62840;52.366;5.980;2023-03-18T05:23:54;100776.47;;;10.29;68.68
69574;BME280;62840;52.366;5.980;2023-03-18T05:26:42;100786.31;;;10.28;68.79
69574;BME280;62840;52.366;5.980;2023-03-18T05:29:47;100775.75;;;10.27;69.15
69574;BME280;62840;52.366;5.980;2023-03-18T05:32:24;100782.03;;;10.25;69.02
69574;BME280;62840;52.366;5.980;2023-03-18T05:35:08;100783.03;;;10.24;69.20
69574;BME280;62840;52.366;5.980;2023-03-18T05:37:39;100777.69;;;10.24;69.17
69574;BME280;62840;52.366;5.980;2023-03-18T05:40:14;100793.56;;;10.26;69.27
69574;BME280;62840;52.366;5.980;2023-03-18T05:42:46;100797.81;;;10.29;69.15
69574;BME280;62840;52.366;5.980;2023-03-18T05:45:24;100792.22;;;10.32;69.23
69574;BME280;62840;52.366;5.980;2023-03-18T05:48:36;100798.16;;;10.35;69.52
69574;BME280;62840;52.366;5.980;2023-03-18T05:51:12;100793.66;;;10.36;69.24
69574;BME280;62840;52.366;5.980;2023-03-18T05:53:55;100793.38;;;10.39;69.44
69574;BME280;62840;52.366;5.980;2023-03-18T05:56:37;100797.78;;;10.40;69.37
69574;BME280;62840;52.366;5.980;2023-03-18T05:59:17;100803.81;;;10.42;69.41
69574;BME280;62840;52.366;5.980;2023-03-18T06:01:52;100805.50;;;10.43;69.25
69574;BME280;62840;52.366;5.980;2023-03-18T06:04:49;100815.06;;;10.45;69.61
69574;BME280;62840;52.366;5.980;2023-03-18T06:07:24;100819.56;;;10.45;69.52
69574;BME280;62840;52.366;5.980;2023-03-18T06:10:14;100821.00;;;10.49;69.60
69574;BME280;62840;52.366;5.980;2023-03-18T06:12:41;100819.91;;;10.52;69.80
69574;BME280;62840;52.366;5.980;2023-03-18T06:15:19;100825.94;;;10.54;69.71
69574;BME280;62840;52.366;5.980;2023-03-18T06:20:53;100822.19;;;10.56;69.84
69574;BME280;62840;52.366;5.980;2023-03-18T06:23:27;100830.91;;;10.58;69.71
69574;BME280;62840;52.366;5.980;2023-03-18T06:25:59;100846.78;;;10.60;69.71
69574;BME280;62840;52.366;5.980;2023-03-18T06:28:35;100838.78;;;10.60;69.81
69574;BME280;62840;52.366;5.980;2023-03-18T06:34:02;100852.69;;;10.63;70.11
69574;BME280;62840;52.366;5.980;2023-03-18T06:36:39;100863.25;;;10.65;69.94
69574;BME280;62840;52.366;5.980;2023-03-18T06:39:14;100860.47;;;10.66;69.90
69574;BME280;62840;52.366;5.980;2023-03-18T06:41:51;100858.50;;;10.69;70.24
69574;BME280;62840;52.366;5.980;2023-03-18T06:44:31;100857.41;;;10.71;70.32
69574;BME280;62840;52.366;5.980;2023-03-18T06:47:09;100862.59;;;10.73;70.33
69574;BME280;62840;52.366;5.980;2023-03-18T06:49:44;100870.38;;;10.76;70.42
69574;BME280;62840;52.366;5.980;2023-03-18T06:55:09;100876.28;;;10.79;70.23
69574;BME280;62840;52.366;5.980;2023-03-18T06:57:45;100882.22;;;10.83;70.64
69574;BME280;62840;52.366;5.980;2023-03-18T07:00:22;100883.78;;;10.85;70.71
69574;BME280;62840;52.366;5.980;2023-03-18T07:03:04;100887.06;;;10.89;70.79
69574;BME280;62840;52.366;5.980;2023-03-18T07:05:38;100890.19;;;10.94;70.53
69574;BME280;62840;52.366;5.980;2023-03-18T07:08:24;100895.28;;;10.97;70.44
69574;BME280;62840;52.366;5.980;2023-03-18T07:11:03;100898.44;;;11.02;70.37
69574;BME280;62840;52.366;5.980;2023-03-18T07:14:06;100890.03;;;11.07;70.52
69574;BME280;62840;52.366;5.980;2023-03-18T07:17:07;100879.91;;;11.11;70.85
69574;BME280;62840;52.366;5.980;2023-03-18T07:20:12;100877.69;;;11.16;70.53
69574;BME280;62840;52.366;5.980;2023-03-18T07:22:52;100880.59;;;11.24;70.57
69574;BME280;62840;52.366;5.980;2023-03-18T07:25:31;100892.44;;;11.31;70.42
69574;BME280;62840;52.366;5.980;2023-03-18T07:28:08;100897.53;;;11.34;70.73
69574;BME280;62840;52.366;5.980;2023-03-18T07:30:46;100904.28;;;11.38;70.77
69574;BME280;62840;52.366;5.980;2023-03-18T07:33:26;100911.06;;;11.42;70.39
69574;BME280;62840;52.366;5.980;2023-03-18T07:36:02;100907.16;;;11.46;70.73
69574;BME280;62840;52.366;5.980;2023-03-18T07:39:00;100907.75;;;11.50;70.47
69574;BME280;62840;52.366;5.980;2023-03-18T07:41:38;100910.03;;;11.55;70.78
69574;BME280;62840;52.366;5.980;2023-03-18T07:44:13;100903.56;;;11.57;70.66
69574;BME280;62840;52.366;5.980;2023-03-18T07:46:59;100918.19;;;11.63;70.97
69574;BME280;62840;52.366;5.980;2023-03-18T07:49:42;100924.97;;;11.67;70.79
69574;BME280;62840;52.366;5.980;2023-03-18T07:52:44;100909.13;;;11.75;71.01
69574;BME280;62840;52.366;5.980;2023-03-18T07:55:18;100912.13;;;11.82;70.79
69574;BME280;62840;52.366;5.980;2023-03-18T07:58:13;100907.94;;;11.89;70.78
69574;BME280;62840;52.366;5.980;2023-03-18T08:01:01;100917.22;;;11.95;70.65
69574;BME280;62840;52.366;5.980;2023-03-18T08:03:33;100922.03;;;12.01;70.21
69574;BME280;62840;52.366;5.980;2023-03-18T08:06:16;100925.16;;;12.06;70.30
69574;BME280;62840;52.366;5.980;2023-03-18T08:09:09;100932.94;;;12.09;70.32
69574;BME280;62840;52.366;5.980;2023-03-18T08:11:48;100928.00;;;12.14;70.47
69574;BME280;62840;52.366;5.980;2023-03-18T08:14:28;100928.59;;;12.18;70.41
69574;BME280;62840;52.366;5.980;2023-03-18T08:17:17;100923.56;;;12.24;70.42
69574;BME280;62840;52.366;5.980;2023-03-18T08:19:58;100926.94;;;12.26;70.27
69574;BME280;62840;52.366;5.980;2023-03-18T08:22:43;100932.03;;;12.29;70.35
69574;BME280;62840;52.366;5.980;2023-03-18T08:25:25;100932.47;;;12.35;70.57
69574;BME280;62840;52.366;5.980;2023-03-18T08:27:58;100934.59;;;12.41;70.29
69574;BME280;62840;52.366;5.980;2023-03-18T08:30:53;100933.34;;;12.45;70.51
69574;BME280;62840;52.366;5.980;2023-03-18T08:33:45;100936.59;;;12.48;70.17
69574;BME280;62840;52.366;5.980;2023-03-18T08:36:22;100942.66;;;12.50;70.02
69574;BME280;62840;52.366;5.980;2023-03-18T08:39:03;100938.84;;;12.53;70.04
69574;BME280;62840;52.366;5.980;2023-03-18T08:41:38;100943.22;;;12.54;70.02
69574;BME280;62840;52.366;5.980;2023-03-18T08:44:12;100954.66;;;12.56;69.94
69574;BME280;62840;52.366;5.980;2023-03-18T08:47:05;100951.25;;;12.54;69.93
69574;BME280;62840;52.366;5.980;2023-03-18T08:49:46;100949.56;;;12.53;69.93
69574;BME280;62840;52.366;5.980;2023-03-18T08:52:26;100962.25;;;12.61;69.85
69574;BME280;62840;52.366;5.980;2023-03-18T08:54:58;100954.53;;;12.67;69.82
69574;BME280;62840;52.366;5.980;2023-03-18T08:57:32;100954.66;;;12.75;69.81
69574;BME280;62840;52.366;5.980;2023-03-18T09:00:14;100958.63;;;12.81;69.74
69574;BME280;62840;52.366;5.980;2023-03-18T09:03:07;100958.94;;;12.88;69.54
69574;BME280;62840;52.366;5.980;2023-03-18T09:05:38;100962.03;;;12.93;69.58
69574;BME280;62840;52.366;5.980;2023-03-18T09:08:21;100956.13;;;12.99;69.36
69574;BME280;62840;52.366;5.980;2023-03-18T09:11:07;100953.88;;;13.04;69.24
69574;BME280;62840;52.366;5.980;2023-03-18T09:13:41;100961.63;;;13.07;68.91
69574;BME280;62840;52.366;5.980;2023-03-18T09:16:13;100964.84;;;13.11;68.94
69574;BME280;62840;52.366;5.980;2023-03-18T09:19:02;100961.34;;;13.10;68.57
69574;BME280;62840;52.366;5.980;2023-03-18T09:21:36;100974.03;;;13.08;68.61
69574;BME280;62840;52.366;5.980;2023-03-18T09:24:20;100975.03;;;13.07;68.68
69574;BME280;62840;52.366;5.980;2023-03-18T09:27:10;100975.28;;;13.04;68.64
69574;BME280;62840;52.366;5.980;2023-03-18T09:29:39;100984.03;;;13.06;68.66
69574;BME280;62840;52.366;5.980;2023-03-18T09:32:08;100987.13;;;13.11;68.55
69574;BME280;62840;52.366;5.980;2023-03-18T09:34:40;100982.91;;;13.19;68.60
69574;BME280;62840;52.366;5.980;2023-03-18T09:37:12;100981.50;;;13.24;68.46
69574;BME280;62840;52.366;5.980;2023-03-18T09:39:38;100973.31;;;13.26;68.31
69574;BME280;62840;52.366;5.980;2023-03-18T09:42:21;100972.75;;;13.32;68.33
69574;BME280;62840;52.366;5.980;2023-03-18T09:45:11;100972.75;;;13.32;67.72
69574;BME280;62840;52.366;5.980;2023-03-18T09:47:53;100976.13;;;13.34;67.65
69574;BME280;62840;52.366;5.980;2023-03-18T09:50:40;100973.88;;;13.39;67.81
69574;BME280;62840;52.366;5.980;2023-03-18T09:53:17;100975.28;;;13.43;67.82
69574;BME280;62840;52.366;5.980;2023-03-18T09:55:52;100968.66;;;13.47;67.47
69574;BME280;62840;52.366;5.980;2023-03-18T09:58:32;100971.06;;;13.50;67.31
69574;BME280;62840;52.366;5.980;2023-03-18T10:01:11;100981.78;;;13.50;67.26
69574;BME280;62840;52.366;5.980;2023-03-18T10:03:42;100985.44;;;13.49;67.14
69574;BME280;62840;52.366;5.980;2023-03-18T10:06:19;100980.91;;;13.50;67.09
69574;BME280;62840;52.366;5.980;2023-03-18T10:08:54;100982.47;;;13.52;67.28
69574;BME280;62840;52.366;5.980;2023-03-18T10:11:32;100985.75;;;13.56;67.41
69574;BME280;62840;52.366;5.980;2023-03-18T10:14:20;100982.34;;;13.64;67.04
69574;BME280;62840;52.366;5.980;2023-03-18T10:17:02;100987.69;;;13.73;67.12
69574;BME280;62840;52.366;5.980;2023-03-18T10:19:42;100984.00;;;13.84;67.12
69574;BME280;62840;52.366;5.980;2023-03-18T10:22:26;100983.13;;;13.93;66.75
69574;BME280;62840;52.366;5.980;2023-03-18T10:25:08;100981.56;;;14.01;66.74
69574;BME280;62840;52.366;5.980;2023-03-18T10:27:48;100983.66;;;14.07;66.39
69574;BME280;62840;52.366;5.980;2023-03-18T10:30:44;100989.28;;;14.13;66.10
69574;BME280;62840;52.366;5.980;2023-03-18T10:33:23;100991.66;;;14.16;66.12
69574;BME280;62840;52.366;5.980;2023-03-18T10:36:04;100992.94;;;14.22;65.99
69574;BME280;62840;52.366;5.980;2023-03-18T10:38:42;100986.69;;;14.31;65.92
69574;BME280;62840;52.366;5.980;2023-03-18T10:41:15;100989.44;;;14.39;66.15
69574;BME280;62840;52.366;5.980;2023-03-18T10:43:50;100987.56;;;14.50;65.99
69574;BME280;62840;52.366;5.980;2023-03-18T10:46:26;100992.34;;;14.56;65.79
69574;BME280;62840;52.366;5.980;2023-03-18T10:48:54;100981.69;;;14.64;65.54
69574;BME280;62840;52.366;5.980;2023-03-18T10:51:30;100993.56;;;14.71;65.40
69574;BME280;62840;52.366;5.980;2023-03-18T10:54:09;100982.22;;;14.77;65.57
69574;BME280;62840;52.366;5.980;2023-03-18T10:56:45;100977.22;;;14.82;65.07
69574;BME280;62840;52.366;5.980;2023-03-18T10:59:13;100980.47;;;14.86;65.36
69574;BME280;62840;52.366;5.980;2023-03-18T11:01:45;100973.13;;;14.88;65.12
69574;BME280;62840;52.366;5.980;2023-03-18T11:04:19;100966.28;;;14.94;64.98
69574;BME280;62840;52.366;5.980;2023-03-18T11:06:49;100959.22;;;14.93;65.16
69574;BME280;62840;52.366;5.980;2023-03-18T11:09:29;100969.38;;;14.99;64.87
69574;BME280;62840;52.366;5.980;2023-03-18T11:11:57;100973.41;;;15.03;64.57
69574;BME280;62840;52.366;5.980;2023-03-18T11:14:29;100970.44;;;15.06;64.77
69574;BME280;62840;52.366;5.980;2023-03-18T11:16:58;100968.13;;;15.11;64.48
69574;BME280;62840;52.366;5.980;2023-03-18T11:19:28;100958.78;;;15.15;64.37
69574;BME280;62840;52.366;5.980;2023-03-18T11:22:19;100957.16;;;15.22;64.41
69574;BME280;62840;52.366;5.980;2023-03-18T11:25:10;100952.16;;;15.28;63.73
69574;BME280;62840;52.366;5.980;2023-03-18T11:27:40;100951.84;;;15.31;63.99
69574;BME280;62840;52.366;5.980;2023-03-18T11:30:28;100955.22;;;15.33;63.60
69574;BME280;62840;52.366;5.980;2023-03-18T11:33:03;100956.91;;;15.34;63.75
69574;BME280;62840;52.366;5.980;2023-03-18T11:35:39;100956.06;;;15.33;63.83
69574;BME280;62840;52.366;5.980;2023-03-18T11:38:14;100960.28;;;15.36;62.94
69574;BME280;62840;52.366;5.980;2023-03-18T11:40:48;100961.66;;;15.40;63.05
69574;BME280;62840;52.366;5.980;2023-03-18T11:43:17;100958.50;;;15.44;62.84
69574;BME280;62840;52.366;5.980;2023-03-18T11:45:53;100963.06;;;15.44;62.41
69574;BME280;62840;52.366;5.980;2023-03-18T11:48:29;100958.84;;;15.41;62.39
69574;BME280;62840;52.366;5.980;2023-03-18T11:54:18;100962.72;;;15.47;62.51
69574;BME280;62840;52.366;5.980;2023-03-18T11:57:10;100962.63;;;15.57;62.77
69574;BME280;62840;52.366;5.980;2023-03-18T11:59:51;100955.16;;;15.69;62.31
69574;BME280;62840;52.366;5.980;2023-03-18T12:02:44;100950.97;;;15.92;62.61
69574;BME280;62840;52.366;5.980;2023-03-18T12:05:34;100954.44;;;16.11;62.19
69574;BME280;62840;52.366;5.980;2023-03-18T12:08:19;100965.09;;;16.20;61.84
69574;BME280;62840;52.366;5.980;2023-03-18T12:10:59;100951.44;;;16.22;61.54
69574;BME280;62840;52.366;5.980;2023-03-18T12:13:43;100949.78;;;16.21;61.38
69574;BME280;62840;52.366;5.980;2023-03-18T12:16:23;100949.78;;;16.21;61.16
69574;BME280;62840;52.366;5.980;2023-03-18T12:19:16;100955.16;;;16.21;61.38
69574;BME280;62840;52.366;5.980;2023-03-18T12:22:05;100946.06;;;16.22;61.13
69574;BME280;62840;52.366;5.980;2023-03-18T12:25:06;100945.78;;;16.25;60.39
69574;BME280;62840;52.366;5.980;2023-03-18T12:27:52;100944.59;;;16.27;60.75
69574;BME280;62840;52.366;5.980;2023-03-18T12:30:49;100951.34;;;16.32;60.63
69574;BME280;62840;52.366;5.980;2023-03-18T12:33:34;100948.47;;;16.33;61.17
69574;BME280;62840;52.366;5.980;2023-03-18T12:36:17;100955.56;;;16.34;61.08
69574;BME280;62840;52.366;5.980;2023-03-18T12:39:11;100953.84;;;16.33;61.03
69574;BME280;62840;52.366;5.980;2023-03-18T12:42:28;100949.66;;;16.31;60.29
69574;BME280;62840;52.366;5.980;2023-03-18T12:45:08;100943.91;;;16.25;60.46
69574;BME280;62840;52.366;5.980;2023-03-18T12:47:47;100945.78;;;16.25;60.67
69574;BME280;62840;52.366;5.980;2023-03-18T12:50:19;100941.22;;;16.25;60.14
69574;BME280;62840;52.366;5.980;2023-03-18T12:52:54;100943.75;;;16.27;60.23
69574;BME280;62840;52.366;5.980;2023-03-18T12:55:28;100942.75;;;16.28;59.95
69574;BME280;62840;52.366;5.980;2023-03-18T12:58:03;100941.72;;;16.29;59.94
69574;BME280;62840;52.366;5.980;2023-03-18T13:00:38;100946.81;;;16.32;59.79
69574;BME280;62840;52.366;5.980;2023-03-18T13:03:23;100942.59;;;16.30;59.26
69574;BME280;62840;52.366;5.980;2023-03-18T13:06:04;100947.09;;;16.29;59.47
69574;BME280;62840;52.366;5.980;2023-03-18T13:08:58;100945.44;;;16.28;59.14
69574;BME280;62840;52.366;5.980;2023-03-18T13:11:47;100944.75;;;16.26;59.27
69574;BME280;62840;52.366;5.980;2023-03-18T13:14:49;100945.44;;;16.28;59.45
69574;BME280;62840;52.366;5.980;2023-03-18T13:17:23;100947.09;;;16.29;59.18
69574;BME280;62840;52.366;5.980;2023-03-18T13:20:00;100948.47;;;16.33;59.10
69574;BME280;62840;52.366;5.980;2023-03-18T13:22:51;100949.84;;;16.37;59.31
69574;BME280;62840;52.366;5.980;2023-03-18T13:25:42;100949.84;;;16.37;59.18
69574;BME280;62840;52.366;5.980;2023-03-18T13:28:43;100955.22;;;16.37;58.84
69574;BME280;62840;52.366;5.980;2023-03-18T13:31:36;100952.88;;;16.34;59.11
69574;BME280;62840;52.366;5.980;2023-03-18T13:41:16;100943.06;;;16.25;58.88
69574;BME280;62840;52.366;5.980;2023-03-18T13:44:13;100945.22;;;16.21;59.00
69574;BME280;62840;52.366;5.980;2023-03-18T13:46:53;100938.19;;;16.20;59.31
69574;BME280;62840;52.366;5.980;2023-03-18T13:49:30;100942.00;;;16.18;58.95
69574;BME280;62840;52.366;5.980;2023-03-18T13:52:22;100945.72;;;16.17;59.12
69574;BME280;62840;52.366;5.980;2023-03-18T13:54:58;100946.75;;;16.16;59.16
69574;BME280;62840;52.366;5.980;2023-03-18T14:00:30;100944.69;;;16.18;59.72
69574;BME280;62840;52.366;5.980;2023-03-18T14:03:26;100938.66;;;16.16;59.83
69574;BME280;62840;52.366;5.980;2023-03-18T14:06:19;100942.00;;;16.10;59.93
69574;BME280;62840;52.366;5.980;2023-03-18T14:08:50;100947.16;;;16.03;59.80
69574;BME280;62840;52.366;5.980;2023-03-18T14:11:44;100948.97;;;15.94;59.58
69574;BME280;62840;52.366;5.980;2023-03-18T14:14:40;100951.59;;;15.86;59.60
69574;BME280;62840;52.366;5.980;2023-03-18T14:17:28;100951.13;;;15.73;59.89
69574;BME280;62840;52.366;5.980;2023-03-18T14:20:20;100953.25;;;15.61;60.04
69574;BME280;62840;52.366;5.980;2023-03-18T14:22:50;100955.34;;;15.49;59.91
69574;BME280;62840;52.366;5.980;2023-03-18T14:28:21;100978.19;;;15.27;60.75
69574;BME280;62840;52.366;5.980;2023-03-18T14:31:14;100978.19;;;15.09;61.31
69574;BME280;62840;52.366;5.980;2023-03-18T14:34:00;100967.34;;;14.83;61.96
69574;BME280;62840;52.366;5.980;2023-03-18T14:37:18;100968.47;;;14.53;62.90
69574;BME280;62840;52.366;5.980;2023-03-18T14:39:50;100962.94;;;14.36;63.38
69574;BME280;62840;52.366;5.980;2023-03-18T14:42:27;100972.84;;;14.26;63.62
69574;BME280;62840;52.366;5.980;2023-03-18T14:45:02;100964.84;;;14.16;63.96
69574;BME280;62840;52.366;5.980;2023-03-18T14:47:43;100961.91;;;14.10;64.50
69574;BME280;62840;52.366;5.980;2023-03-18T14:50:21;100955.13;;;14.06;64.84
69574;BME280;62840;52.366;5.980;2023-03-18T14:52:57;100958.25;;;14.01;65.21
69574;BME280;62840;52.366;5.980;2023-03-18T14:55:31;100955.03;;;13.97;65.54
69574;BME280;62840;52.366;5.980;2023-03-18T14:57:58;100945.28;;;13.96;65.85
69574;BME280;62840;52.366;5.980;2023-03-18T15:00:35;100943.63;;;13.95;65.94
69574;BME280;62840;52.366;5.980;2023-03-18T15:03:15;100944.31;;;13.97;66.15